sensor_id;sensor_type;location;lat;lon;timestamp;P1;durP1;ratioP1;P2;durP2;ratioP2
6388;SDS011;3227;42.654;23.360;2022-08-20T00:00:04;14.40;;;7.03;;
6388;SDS011;3227;42.654;23.360;2022-08-20T00:02:38;11.13;;;6.32;;
6388;SDS011;3227;42.654;23.360;2022-08-20T00:05:07;12.05;;;6.55;;
6388;SDS011;3227;42.654;23.360;2022-08-20T00:07:34;12.48;;;6.78;;
6388;SDS011;3227;42.654;23.360;2022-08-20T00:10:00;11.00;;;6.57;;
6388;SDS011;3227;42.654;23.360;2022-08-20T00:12:27;14.20;;;6.53;;
6388;SDS011;3227;42.654;23.360;2022-08-20T00:14:54;15.63;;;7.10;;
6388;SDS011;3227;42.654;23.360;2022-08-20T00:17:21;12.35;;;6.38;;
6388;SDS011;3227;42.654;23.360;2022-08-20T00:19:49;11.80;;;6.28;;
6388;SDS011;3227;42.654;23.360;2022-08-20T00:22:16;13.82;;;6.57;;
6388;SDS011;3227;42.654;23.360;2022-08-20T00:24:43;12.57;;;6.63;;
6388;SDS011;3227;42.654;23.360;2022-08-20T00:27:10;13.02;;;6.57;;
6388;SDS011;3227;42.654;23.360;2022-08-20T00:29:36;12.57;;;6.72;;
6388;SDS011;3227;42.654;23.360;2022-08-20T00:32:03;10.93;;;6.72;;
6388;SDS011;3227;42.654;23.360;2022-08-20T00:34:30;10.63;;;6.50;;
6388;SDS011;3227;42.654;23.360;2022-08-20T00:36:58;13.52;;;6.75;;
6388;SDS011;3227;42.654;23.360;2022-08-20T00:39:25;12.10;;;6.57;;
6388;SDS011;3227;42.654;23.360;2022-08-20T00:41:52;10.25;;;6.82;;
6388;SDS011;3227;42.654;23.360;2022-08-20T00:44:19;12.45;;;7.15;;
6388;SDS011;3227;42.654;23.360;2022-08-20T00:46:48;9.38;;;6.68;;
6388;SDS011;3227;42.654;23.360;2022-08-20T00:49:16;10.93;;;7.38;;
6388;SDS011;3227;42.654;23.360;2022-08-20T00:51:47;13.43;;;6.90;;
6388;SDS011;3227;42.654;23.360;2022-08-20T00:54:20;9.60;;;6.57;;
6388;SDS011;3227;42.654;23.360;2022-08-20T00:56:51;13.20;;;6.80;;
6388;SDS011;3227;42.654;23.360;2022-08-20T00:59:23;10.52;;;6.82;;
6388;SDS011;3227;42.654;23.360;2022-08-20T01:01:53;16.58;;;6.95;;
6388;SDS011;3227;42.654;23.360;2022-08-20T01:04:21;12.20;;;6.72;;
6388;SDS011;3227;42.654;23.360;2022-08-20T01:06:50;10.40;;;6.47;;
6388;SDS011;3227;42.654;23.360;2022-08-20T01:09:17;14.48;;;6.85;;
6388;SDS011;3227;42.654;23.360;2022-08-20T01:11:45;12.90;;;6.65;;
6388;SDS011;3227;42.654;23.360;2022-08-20T01:14:12;13.05;;;6.65;;
6388;SDS011;3227;42.654;23.360;2022-08-20T01:16:53;14.10;;;6.88;;
6388;SDS011;3227;42.654;23.360;2022-08-20T01:19:23;12.82;;;6.65;;
6388;SDS011;3227;42.654;23.360;2022-08-20T01:21:54;16.17;;;7.35;;
6388;SDS011;3227;42.654;23.360;2022-08-20T01:24:25;12.82;;;7.28;;
6388;SDS011;3227;42.654;23.360;2022-08-20T01:26:57;11.63;;;6.85;;
6388;SDS011;3227;42.654;23.360;2022-08-20T01:29:29;9.57;;;6.50;;
6388;SDS011;3227;42.654;23.360;2022-08-20T01:32:00;10.55;;;7.00;;
6388;SDS011;3227;42.654;23.360;2022-08-20T01:34:28;12.25;;;7.13;;
6388;SDS011;3227;42.654;23.360;2022-08-20T01:36:56;12.90;;;6.90;;
6388;SDS011;3227;42.654;23.360;2022-08-20T01:39:24;15.52;;;7.07;;
6388;SDS011;3227;42.654;23.360;2022-08-20T01:42:03;12.63;;;7.20;;
6388;SDS011;3227;42.654;23.360;2022-08-20T01:44:34;10.05;;;6.90;;
6388;SDS011;3227;42.654;23.360;2022-08-20T01:47:10;11.90;;;7.45;;
6388;SDS011;3227;42.654;23.360;2022-08-20T01:49:40;9.90;;;6.88;;
6388;SDS011;3227;42.654;23.360;2022-08-20T01:52:10;13.07;;;7.55;;
6388;SDS011;3227;42.654;23.360;2022-08-20T01:54:43;12.13;;;7.00;;
6388;SDS011;3227;42.654;23.360;2022-08-20T01:57:12;16.35;;;7.30;;
6388;SDS011;3227;42.654;23.360;2022-08-20T01:59:41;13.63;;;6.95;;
6388;SDS011;3227;42.654;23.360;2022-08-20T02:02:10;12.57;;;7.40;;
6388;SDS011;3227;42.654;23.360;2022-08-20T02:04:37;9.98;;;7.20;;
6388;SDS011;3227;42.654;23.360;2022-08-20T02:07:06;10.20;;;6.63;;
6388;SDS011;3227;42.654;23.360;2022-08-20T02:09:38;12.55;;;7.22;;
6388;SDS011;3227;42.654;23.360;2022-08-20T02:12:06;9.55;;;6.60;;
6388;SDS011;3227;42.654;23.360;2022-08-20T02:14:38;14.13;;;7.25;;
6388;SDS011;3227;42.654;23.360;2022-08-20T02:17:07;12.90;;;7.95;;
6388;SDS011;3227;42.654;23.360;2022-08-20T02:19:35;13.75;;;7.18;;
6388;SDS011;3227;42.654;23.360;2022-08-20T02:22:08;12.57;;;7.40;;
6388;SDS011;3227;42.654;23.360;2022-08-20T02:24:41;11.07;;;7.38;;
6388;SDS011;3227;42.654;23.360;2022-08-20T02:27:09;13.07;;;7.03;;
6388;SDS011;3227;42.654;23.360;2022-08-20T02:29:37;11.05;;;7.25;;
6388;SDS011;3227;42.654;23.360;2022-08-20T02:32:05;12.40;;;7.25;;
6388;SDS011;3227;42.654;23.360;2022-08-20T02:34:33;13.05;;;7.30;;
6388;SDS011;3227;42.654;23.360;2022-08-20T02:37:00;11.10;;;7.35;;
6388;SDS011;3227;42.654;23.360;2022-08-20T02:39:28;13.40;;;7.60;;
6388;SDS011;3227;42.654;23.360;2022-08-20T02:41:54;14.73;;;7.70;;
6388;SDS011;3227;42.654;23.360;2022-08-20T02:44:21;10.00;;;6.88;;
6388;SDS011;3227;42.654;23.360;2022-08-20T02:46:49;13.32;;;7.72;;
6388;SDS011;3227;42.654;23.360;2022-08-20T02:49:16;15.70;;;7.40;;
6388;SDS011;3227;42.654;23.360;2022-08-20T02:51:44;10.50;;;7.10;;
6388;SDS011;3227;42.654;23.360;2022-08-20T02:54:12;12.07;;;7.53;;
6388;SDS011;3227;42.654;23.360;2022-08-20T02:56:39;15.63;;;7.57;;
6388;SDS011;3227;42.654;23.360;2022-08-20T02:59:07;13.25;;;7.93;;
6388;SDS011;3227;42.654;23.360;2022-08-20T03:01:34;10.50;;;7.40;;
6388;SDS011;3227;42.654;23.360;2022-08-20T03:04:04;16.10;;;7.97;;
6388;SDS011;3227;42.654;23.360;2022-08-20T03:06:31;12.07;;;7.57;;
6388;SDS011;3227;42.654;23.360;2022-08-20T03:08:57;13.38;;;7.85;;
6388;SDS011;3227;42.654;23.360;2022-08-20T03:11:24;9.70;;;6.95;;
6388;SDS011;3227;42.654;23.360;2022-08-20T03:13:51;12.50;;;7.22;;
6388;SDS011;3227;42.654;23.360;2022-08-20T03:16:18;16.88;;;7.22;;
6388;SDS011;3227;42.654;23.360;2022-08-20T03:18:45;11.55;;;7.80;;
6388;SDS011;3227;42.654;23.360;2022-08-20T03:21:14;10.75;;;7.22;;
6388;SDS011;3227;42.654;23.360;2022-08-20T03:23:41;17.30;;;8.05;;
6388;SDS011;3227;42.654;23.360;2022-08-20T03:26:09;15.05;;;7.82;;
6388;SDS011;3227;42.654;23.360;2022-08-20T03:28:37;12.93;;;7.53;;
6388;SDS011;3227;42.654;23.360;2022-08-20T03:31:05;12.95;;;7.30;;
6388;SDS011;3227;42.654;23.360;2022-08-20T03:33:32;13.70;;;7.97;;
6388;SDS011;3227;42.654;23.360;2022-08-20T03:35:59;13.88;;;7.57;;
6388;SDS011;3227;42.654;23.360;2022-08-20T03:38:27;15.90;;;8.77;;
6388;SDS011;3227;42.654;23.360;2022-08-20T03:40:54;13.43;;;7.80;;
6388;SDS011;3227;42.654;23.360;2022-08-20T03:43:21;11.05;;;7.25;;
6388;SDS011;3227;42.654;23.360;2022-08-20T03:45:48;14.45;;;8.30;;
6388;SDS011;3227;42.654;23.360;2022-08-20T03:48:17;13.13;;;7.40;;
6388;SDS011;3227;42.654;23.360;2022-08-20T03:50:45;14.48;;;7.75;;
6388;SDS011;3227;42.654;23.360;2022-08-20T03:53:13;14.07;;;7.53;;
6388;SDS011;3227;42.654;23.360;2022-08-20T03:55:47;12.30;;;7.50;;
6388;SDS011;3227;42.654;23.360;2022-08-20T03:58:14;14.15;;;7.95;;
6388;SDS011;3227;42.654;23.360;2022-08-20T04:00:47;12.75;;;8.95;;
6388;SDS011;3227;42.654;23.360;2022-08-20T04:03:15;11.57;;;7.68;;
6388;SDS011;3227;42.654;23.360;2022-08-20T04:05:43;11.63;;;8.07;;
6388;SDS011;3227;42.654;23.360;2022-08-20T04:08:11;14.10;;;8.38;;
6388;SDS011;3227;42.654;23.360;2022-08-20T04:10:41;12.23;;;7.90;;
6388;SDS011;3227;42.654;23.360;2022-08-20T04:13:12;15.32;;;8.40;;
6388;SDS011;3227;42.654;23.360;2022-08-20T04:15:40;16.52;;;8.73;;
6388;SDS011;3227;42.654;23.360;2022-08-20T04:18:07;12.82;;;8.25;;
6388;SDS011;3227;42.654;23.360;2022-08-20T04:20:36;14.77;;;7.75;;
6388;SDS011;3227;42.654;23.360;2022-08-20T04:23:05;12.52;;;7.95;;
6388;SDS011;3227;42.654;23.360;2022-08-20T04:25:34;11.95;;;8.30;;
6388;SDS011;3227;42.654;23.360;2022-08-20T04:28:05;15.85;;;8.25;;
6388;SDS011;3227;42.654;23.360;2022-08-20T04:30:35;18.45;;;8.38;;
6388;SDS011;3227;42.654;23.360;2022-08-20T04:33:02;13.43;;;7.65;;
6388;SDS011;3227;42.654;23.360;2022-08-20T04:35:29;14.88;;;8.02;;
6388;SDS011;3227;42.654;23.360;2022-08-20T04:37:57;13.45;;;7.93;;
6388;SDS011;3227;42.654;23.360;2022-08-20T04:40:25;12.48;;;7.97;;
6388;SDS011;3227;42.654;23.360;2022-08-20T04:43:09;11.10;;;7.07;;
6388;SDS011;3227;42.654;23.360;2022-08-20T04:45:38;19.48;;;8.48;;
6388;SDS011;3227;42.654;23.360;2022-08-20T04:48:04;15.55;;;7.90;;
6388;SDS011;3227;42.654;23.360;2022-08-20T04:50:32;14.23;;;7.68;;
6388;SDS011;3227;42.654;23.360;2022-08-20T04:53:00;14.60;;;7.97;;
6388;SDS011;3227;42.654;23.360;2022-08-20T04:55:28;15.90;;;7.80;;
6388;SDS011;3227;42.654;23.360;2022-08-20T04:57:55;11.65;;;7.70;;
6388;SDS011;3227;42.654;23.360;2022-08-20T05:00:28;11.80;;;7.32;;
6388;SDS011;3227;42.654;23.360;2022-08-20T05:02:57;13.25;;;6.95;;
6388;SDS011;3227;42.654;23.360;2022-08-20T05:05:24;11.38;;;7.35;;
6388;SDS011;3227;42.654;23.360;2022-08-20T05:07:52;19.40;;;8.90;;
6388;SDS011;3227;42.654;23.360;2022-08-20T05:10:19;12.55;;;8.60;;
6388;SDS011;3227;42.654;23.360;2022-08-20T05:12:47;12.10;;;8.07;;
6388;SDS011;3227;42.654;23.360;2022-08-20T05:15:14;15.65;;;7.90;;
6388;SDS011;3227;42.654;23.360;2022-08-20T05:17:42;13.90;;;8.18;;
6388;SDS011;3227;42.654;23.360;2022-08-20T05:20:12;14.82;;;7.55;;
6388;SDS011;3227;42.654;23.360;2022-08-20T05:22:41;12.88;;;8.05;;
6388;SDS011;3227;42.654;23.360;2022-08-20T05:25:08;13.35;;;7.65;;
6388;SDS011;3227;42.654;23.360;2022-08-20T05:27:36;18.45;;;7.57;;
6388;SDS011;3227;42.654;23.360;2022-08-20T05:30:07;17.65;;;8.60;;
6388;SDS011;3227;42.654;23.360;2022-08-20T05:32:35;17.90;;;10.98;;
6388;SDS011;3227;42.654;23.360;2022-08-20T05:35:03;24.58;;;12.68;;
6388;SDS011;3227;42.654;23.360;2022-08-20T05:37:33;14.32;;;8.48;;
6388;SDS011;3227;42.654;23.360;2022-08-20T05:40:00;16.08;;;8.20;;
6388;SDS011;3227;42.654;23.360;2022-08-20T05:42:26;15.98;;;8.40;;
6388;SDS011;3227;42.654;23.360;2022-08-20T05:44:54;13.90;;;8.30;;
6388;SDS011;3227;42.654;23.360;2022-08-20T05:47:21;11.80;;;8.15;;
6388;SDS011;3227;42.654;23.360;2022-08-20T05:49:52;13.35;;;8.13;;
6388;SDS011;3227;42.654;23.360;2022-08-20T05:52:19;11.27;;;7.97;;
6388;SDS011;3227;42.654;23.360;2022-08-20T05:54:47;18.05;;;8.05;;
6388;SDS011;3227;42.654;23.360;2022-08-20T05:57:15;12.05;;;8.27;;
6388;SDS011;3227;42.654;23.360;2022-08-20T05:59:44;12.45;;;7.60;;
6388;SDS011;3227;42.654;23.360;2022-08-20T06:02:11;16.55;;;8.88;;
6388;SDS011;3227;42.654;23.360;2022-08-20T06:04:51;14.95;;;8.10;;
6388;SDS011;3227;42.654;23.360;2022-08-20T06:07:18;12.88;;;7.82;;
6388;SDS011;3227;42.654;23.360;2022-08-20T06:09:45;11.52;;;7.93;;
6388;SDS011;3227;42.654;23.360;2022-08-20T06:12:14;14.93;;;8.10;;
6388;SDS011;3227;42.654;23.360;2022-08-20T06:14:42;11.52;;;7.72;;
6388;SDS011;3227;42.654;23.360;2022-08-20T06:17:13;16.83;;;8.30;;
6388;SDS011;3227;42.654;23.360;2022-08-20T06:19:42;13.38;;;7.72;;
6388;SDS011;3227;42.654;23.360;2022-08-20T06:22:10;12.70;;;8.13;;
6388;SDS011;3227;42.654;23.360;2022-08-20T06:24:38;13.52;;;8.13;;
6388;SDS011;3227;42.654;23.360;2022-08-20T06:27:05;13.82;;;8.48;;
6388;SDS011;3227;42.654;23.360;2022-08-20T06:29:34;16.05;;;7.80;;
6388;SDS011;3227;42.654;23.360;2022-08-20T06:32:01;36.60;;;9.32;;
6388;SDS011;3227;42.654;23.360;2022-08-20T06:34:28;12.68;;;8.50;;
6388;SDS011;3227;42.654;23.360;2022-08-20T06:36:55;15.05;;;8.35;;
6388;SDS011;3227;42.654;23.360;2022-08-20T06:39:23;13.27;;;8.38;;
6388;SDS011;3227;42.654;23.360;2022-08-20T06:41:51;12.98;;;8.80;;
6388;SDS011;3227;42.654;23.360;2022-08-20T06:44:19;16.75;;;8.55;;
6388;SDS011;3227;42.654;23.360;2022-08-20T06:46:48;22.15;;;8.93;;
6388;SDS011;3227;42.654;23.360;2022-08-20T06:49:15;12.68;;;8.75;;
6388;SDS011;3227;42.654;23.360;2022-08-20T06:51:42;16.60;;;8.32;;
6388;SDS011;3227;42.654;23.360;2022-08-20T06:54:09;19.10;;;8.50;;
6388;SDS011;3227;42.654;23.360;2022-08-20T06:56:36;15.00;;;8.10;;
6388;SDS011;3227;42.654;23.360;2022-08-20T06:59:03;13.85;;;8.23;;
6388;SDS011;3227;42.654;23.360;2022-08-20T07:01:30;12.98;;;8.10;;
6388;SDS011;3227;42.654;23.360;2022-08-20T07:03:58;16.55;;;8.57;;
6388;SDS011;3227;42.654;23.360;2022-08-20T07:06:25;14.75;;;8.32;;
6388;SDS011;3227;42.654;23.360;2022-08-20T07:08:52;17.15;;;7.90;;
6388;SDS011;3227;42.654;23.360;2022-08-20T07:11:19;11.52;;;7.97;;
6388;SDS011;3227;42.654;23.360;2022-08-20T07:13:47;12.95;;;8.27;;
6388;SDS011;3227;42.654;23.360;2022-08-20T07:16:18;16.27;;;7.90;;
6388;SDS011;3227;42.654;23.360;2022-08-20T07:18:45;17.33;;;8.13;;
6388;SDS011;3227;42.654;23.360;2022-08-20T07:21:13;14.35;;;8.27;;
6388;SDS011;3227;42.654;23.360;2022-08-20T07:23:41;13.48;;;7.82;;
6388;SDS011;3227;42.654;23.360;2022-08-20T07:26:08;15.55;;;8.95;;
6388;SDS011;3227;42.654;23.360;2022-08-20T07:28:35;15.00;;;7.95;;
6388;SDS011;3227;42.654;23.360;2022-08-20T07:31:01;13.68;;;8.50;;
6388;SDS011;3227;42.654;23.360;2022-08-20T07:33:46;14.85;;;8.70;;
6388;SDS011;3227;42.654;23.360;2022-08-20T07:36:14;13.80;;;8.30;;
6388;SDS011;3227;42.654;23.360;2022-08-20T07:38:41;13.35;;;8.45;;
6388;SDS011;3227;42.654;23.360;2022-08-20T07:41:10;13.93;;;8.13;;
6388;SDS011;3227;42.654;23.360;2022-08-20T07:43:37;11.23;;;8.40;;
6388;SDS011;3227;42.654;23.360;2022-08-20T07:46:05;14.93;;;8.40;;
6388;SDS011;3227;42.654;23.360;2022-08-20T07:48:32;14.95;;;8.32;;
6388;SDS011;3227;42.654;23.360;2022-08-20T07:51:01;12.60;;;8.07;;
6388;SDS011;3227;42.654;23.360;2022-08-20T07:53:31;16.25;;;8.32;;
6388;SDS011;3227;42.654;23.360;2022-08-20T07:55:59;10.60;;;7.07;;
6388;SDS011;3227;42.654;23.360;2022-08-20T07:58:26;16.50;;;8.48;;
6388;SDS011;3227;42.654;23.360;2022-08-20T08:00:54;11.43;;;7.70;;
6388;SDS011;3227;42.654;23.360;2022-08-20T08:03:21;11.65;;;7.93;;
6388;SDS011;3227;42.654;23.360;2022-08-20T08:05:48;10.93;;;7.85;;
6388;SDS011;3227;42.654;23.360;2022-08-20T08:08:17;11.68;;;8.43;;
6388;SDS011;3227;42.654;23.360;2022-08-20T08:10:50;15.88;;;9.25;;
6388;SDS011;3227;42.654;23.360;2022-08-20T08:13:20;14.35;;;8.20;;
6388;SDS011;3227;42.654;23.360;2022-08-20T08:15:52;14.85;;;8.18;;
6388;SDS011;3227;42.654;23.360;2022-08-20T08:18:24;17.17;;;8.30;;
6388;SDS011;3227;42.654;23.360;2022-08-20T08:20:53;11.15;;;8.02;;
6388;SDS011;3227;42.654;23.360;2022-08-20T08:23:21;14.20;;;8.23;;
6388;SDS011;3227;42.654;23.360;2022-08-20T08:25:49;11.23;;;7.97;;
6388;SDS011;3227;42.654;23.360;2022-08-20T08:28:17;16.98;;;8.15;;
6388;SDS011;3227;42.654;23.360;2022-08-20T08:30:46;13.07;;;8.88;;
6388;SDS011;3227;42.654;23.360;2022-08-20T08:33:17;20.85;;;8.52;;
6388;SDS011;3227;42.654;23.360;2022-08-20T08:35:53;11.23;;;7.55;;
6388;SDS011;3227;42.654;23.360;2022-08-20T08:38:21;13.52;;;8.15;;
6388;SDS011;3227;42.654;23.360;2022-08-20T08:40:50;14.25;;;8.73;;
6388;SDS011;3227;42.654;23.360;2022-08-20T08:43:19;10.98;;;7.95;;
6388;SDS011;3227;42.654;23.360;2022-08-20T08:45:50;13.88;;;8.48;;
6388;SDS011;3227;42.654;23.360;2022-08-20T08:48:21;12.65;;;8.32;;
6388;SDS011;3227;42.654;23.360;2022-08-20T08:50:56;16.48;;;8.60;;
6388;SDS011;3227;42.654;23.360;2022-08-20T08:53:25;13.70;;;8.18;;
6388;SDS011;3227;42.654;23.360;2022-08-20T08:55:57;13.55;;;8.70;;
6388;SDS011;3227;42.654;23.360;2022-08-20T08:58:24;22.08;;;9.13;;
6388;SDS011;3227;42.654;23.360;2022-08-20T09:00:52;12.98;;;8.98;;
6388;SDS011;3227;42.654;23.360;2022-08-20T09:03:21;14.07;;;8.27;;
6388;SDS011;3227;42.654;23.360;2022-08-20T09:05:52;13.38;;;8.63;;
6388;SDS011;3227;42.654;23.360;2022-08-20T09:08:21;15.32;;;8.57;;
6388;SDS011;3227;42.654;23.360;2022-08-20T09:10:51;11.48;;;8.48;;
6388;SDS011;3227;42.654;23.360;2022-08-20T09:13:19;11.82;;;8.27;;
6388;SDS011;3227;42.654;23.360;2022-08-20T09:15:46;12.88;;;8.15;;
6388;SDS011;3227;42.654;23.360;2022-08-20T09:18:13;11.45;;;8.30;;
6388;SDS011;3227;42.654;23.360;2022-08-20T09:20:40;15.00;;;8.05;;
6388;SDS011;3227;42.654;23.360;2022-08-20T09:23:06;11.98;;;8.45;;
6388;SDS011;3227;42.654;23.360;2022-08-20T09:25:33;18.00;;;8.35;;
6388;SDS011;3227;42.654;23.360;2022-08-20T09:28:01;11.38;;;8.20;;
6388;SDS011;3227;42.654;23.360;2022-08-20T09:30:29;13.25;;;8.40;;
6388;SDS011;3227;42.654;23.360;2022-08-20T09:32:57;11.90;;;8.23;;
6388;SDS011;3227;42.654;23.360;2022-08-20T09:35:24;13.23;;;9.20;;
6388;SDS011;3227;42.654;23.360;2022-08-20T09:37:52;11.32;;;8.32;;
6388;SDS011;3227;42.654;23.360;2022-08-20T09:40:19;13.30;;;9.30;;
6388;SDS011;3227;42.654;23.360;2022-08-20T09:42:46;16.70;;;8.20;;
6388;SDS011;3227;42.654;23.360;2022-08-20T09:45:14;14.02;;;9.25;;
6388;SDS011;3227;42.654;23.360;2022-08-20T09:47:42;14.65;;;8.30;;
6388;SDS011;3227;42.654;23.360;2022-08-20T09:50:09;14.35;;;8.38;;
6388;SDS011;3227;42.654;23.360;2022-08-20T09:52:36;13.50;;;8.02;;
6388;SDS011;3227;42.654;23.360;2022-08-20T09:55:11;13.65;;;8.13;;
6388;SDS011;3227;42.654;23.360;2022-08-20T09:57:43;10.98;;;8.38;;
6388;SDS011;3227;42.654;23.360;2022-08-20T10:00:11;10.95;;;8.23;;
6388;SDS011;3227;42.654;23.360;2022-08-20T10:02:39;12.95;;;8.18;;
6388;SDS011;3227;42.654;23.360;2022-08-20T10:05:08;10.75;;;7.95;;
6388;SDS011;3227;42.654;23.360;2022-08-20T10:07:36;11.13;;;7.68;;
6388;SDS011;3227;42.654;23.360;2022-08-20T10:10:05;13.85;;;8.00;;
6388;SDS011;3227;42.654;23.360;2022-08-20T10:12:34;14.02;;;8.10;;
6388;SDS011;3227;42.654;23.360;2022-08-20T10:15:01;17.40;;;8.82;;
6388;SDS011;3227;42.654;23.360;2022-08-20T10:17:27;11.98;;;8.05;;
6388;SDS011;3227;42.654;23.360;2022-08-20T10:19:54;11.07;;;7.75;;
6388;SDS011;3227;42.654;23.360;2022-08-20T10:22:22;11.30;;;8.35;;
6388;SDS011;3227;42.654;23.360;2022-08-20T10:24:51;15.07;;;8.90;;
6388;SDS011;3227;42.654;23.360;2022-08-20T10:27:18;13.57;;;8.60;;
6388;SDS011;3227;42.654;23.360;2022-08-20T10:29:45;15.25;;;8.57;;
6388;SDS011;3227;42.654;23.360;2022-08-20T10:32:13;15.90;;;8.43;;
6388;SDS011;3227;42.654;23.360;2022-08-20T10:34:41;12.40;;;8.10;;
6388;SDS011;3227;42.654;23.360;2022-08-20T10:37:13;12.70;;;8.20;;
6388;SDS011;3227;42.654;23.360;2022-08-20T10:39:42;11.35;;;8.05;;
6388;SDS011;3227;42.654;23.360;2022-08-20T10:42:09;13.82;;;8.30;;
6388;SDS011;3227;42.654;23.360;2022-08-20T10:44:36;14.07;;;8.65;;
6388;SDS011;3227;42.654;23.360;2022-08-20T10:47:13;14.32;;;8.73;;
6388;SDS011;3227;42.654;23.360;2022-08-20T10:49:41;11.23;;;8.40;;
6388;SDS011;3227;42.654;23.360;2022-08-20T10:52:08;11.18;;;8.75;;
6388;SDS011;3227;42.654;23.360;2022-08-20T10:54:35;12.82;;;8.43;;
6388;SDS011;3227;42.654;23.360;2022-08-20T10:57:07;11.95;;;8.48;;
6388;SDS011;3227;42.654;23.360;2022-08-20T10:59:37;12.48;;;8.57;;
6388;SDS011;3227;42.654;23.360;2022-08-20T11:02:04;12.02;;;8.10;;
6388;SDS011;3227;42.654;23.360;2022-08-20T11:04:41;12.38;;;8.55;;
6388;SDS011;3227;42.654;23.360;2022-08-20T11:07:09;12.20;;;8.90;;
6388;SDS011;3227;42.654;23.360;2022-08-20T11:09:37;18.05;;;8.10;;
6388;SDS011;3227;42.654;23.360;2022-08-20T11:12:04;11.20;;;8.32;;
6388;SDS011;3227;42.654;23.360;2022-08-20T11:14:32;12.27;;;9.10;;
6388;SDS011;3227;42.654;23.360;2022-08-20T11:16:59;11.77;;;8.35;;
6388;SDS011;3227;42.654;23.360;2022-08-20T11:19:27;12.48;;;8.48;;
6388;SDS011;3227;42.654;23.360;2022-08-20T11:21:54;12.35;;;8.65;;
6388;SDS011;3227;42.654;23.360;2022-08-20T11:24:21;13.70;;;8.90;;
6388;SDS011;3227;42.654;23.360;2022-08-20T11:26:48;12.48;;;8.70;;
6388;SDS011;3227;42.654;23.360;2022-08-20T11:29:17;15.88;;;8.90;;
6388;SDS011;3227;42.654;23.360;2022-08-20T11:31:47;11.32;;;8.00;;
6388;SDS011;3227;42.654;23.360;2022-08-20T11:34:14;11.60;;;8.25;;
6388;SDS011;3227;42.654;23.360;2022-08-20T11:36:41;14.32;;;8.55;;
6388;SDS011;3227;42.654;23.360;2022-08-20T11:39:08;15.13;;;7.55;;
6388;SDS011;3227;42.654;23.360;2022-08-20T11:41:35;13.00;;;7.90;;
6388;SDS011;3227;42.654;23.360;2022-08-20T11:44:02;11.85;;;7.70;;
6388;SDS011;3227;42.654;23.360;2022-08-20T11:46:29;13.07;;;7.70;;
6388;SDS011;3227;42.654;23.360;2022-08-20T11:48:59;10.60;;;8.30;;
6388;SDS011;3227;42.654;23.360;2022-08-20T11:51:26;10.73;;;7.47;;
6388;SDS011;3227;42.654;23.360;2022-08-20T11:53:53;12.05;;;8.25;;
6388;SDS011;3227;42.654;23.360;2022-08-20T11:56:20;11.23;;;7.88;;
6388;SDS011;3227;42.654;23.360;2022-08-20T11:58:47;13.15;;;7.63;;
6388;SDS011;3227;42.654;23.360;2022-08-20T12:01:14;9.35;;;7.38;;
6388;SDS011;3227;42.654;23.360;2022-08-20T12:03:41;14.60;;;7.53;;
6388;SDS011;3227;42.654;23.360;2022-08-20T12:06:12;13.05;;;7.47;;
6388;SDS011;3227;42.654;23.360;2022-08-20T12:08:39;12.13;;;7.40;;
6388;SDS011;3227;42.654;23.360;2022-08-20T12:11:06;9.95;;;6.95;;
6388;SDS011;3227;42.654;23.360;2022-08-20T12:13:34;13.02;;;7.82;;
6388;SDS011;3227;42.654;23.360;2022-08-20T12:16:02;11.82;;;7.93;;
6388;SDS011;3227;42.654;23.360;2022-08-20T12:18:29;12.85;;;7.65;;
6388;SDS011;3227;42.654;23.360;2022-08-20T12:20:56;11.40;;;7.28;;
6388;SDS011;3227;42.654;23.360;2022-08-20T12:23:25;9.93;;;7.75;;
6388;SDS011;3227;42.654;23.360;2022-08-20T12:25:51;11.23;;;7.50;;
6388;SDS011;3227;42.654;23.360;2022-08-20T12:28:18;13.20;;;7.45;;
6388;SDS011;3227;42.654;23.360;2022-08-20T12:30:45;15.10;;;8.13;;
6388;SDS011;3227;42.654;23.360;2022-08-20T12:33:12;31.98;;;9.57;;
6388;SDS011;3227;42.654;23.360;2022-08-20T12:35:39;15.93;;;8.77;;
6388;SDS011;3227;42.654;23.360;2022-08-20T12:38:06;18.10;;;9.07;;
6388;SDS011;3227;42.654;23.360;2022-08-20T12:40:34;20.27;;;10.52;;
6388;SDS011;3227;42.654;23.360;2022-08-20T12:43:01;21.63;;;10.40;;
6388;SDS011;3227;42.654;23.360;2022-08-20T12:45:29;32.08;;;11.80;;
6388;SDS011;3227;42.654;23.360;2022-08-20T12:48:01;25.13;;;12.68;;
6388;SDS011;3227;42.654;23.360;2022-08-20T12:50:29;27.35;;;12.05;;
6388;SDS011;3227;42.654;23.360;2022-08-20T12:52:57;27.42;;;13.05;;
6388;SDS011;3227;42.654;23.360;2022-08-20T12:55:24;29.33;;;14.52;;
6388;SDS011;3227;42.654;23.360;2022-08-20T12:57:53;24.98;;;12.93;;
6388;SDS011;3227;42.654;23.360;2022-08-20T13:00:24;22.48;;;12.98;;
6388;SDS011;3227;42.654;23.360;2022-08-20T13:02:53;35.00;;;15.90;;
6388;SDS011;3227;42.654;23.360;2022-08-20T13:05:22;28.02;;;14.70;;
6388;SDS011;3227;42.654;23.360;2022-08-20T13:07:49;29.73;;;13.27;;
6388;SDS011;3227;42.654;23.360;2022-08-20T13:10:18;22.85;;;12.65;;
6388;SDS011;3227;42.654;23.360;2022-08-20T13:12:49;28.95;;;14.30;;
6388;SDS011;3227;42.654;23.360;2022-08-20T13:15:18;31.65;;;14.02;;
6388;SDS011;3227;42.654;23.360;2022-08-20T13:17:49;29.20;;;14.10;;
6388;SDS011;3227;42.654;23.360;2022-08-20T13:20:17;24.52;;;13.35;;
6388;SDS011;3227;42.654;23.360;2022-08-20T13:22:44;26.00;;;13.80;;
6388;SDS011;3227;42.654;23.360;2022-08-20T13:25:11;27.15;;;13.63;;
6388;SDS011;3227;42.654;23.360;2022-08-20T13:27:39;22.25;;;13.65;;
6388;SDS011;3227;42.654;23.360;2022-08-20T13:30:07;23.35;;;12.68;;
6388;SDS011;3227;42.654;23.360;2022-08-20T13:32:37;23.70;;;14.32;;
6388;SDS011;3227;42.654;23.360;2022-08-20T13:35:09;31.05;;;14.65;;
6388;SDS011;3227;42.654;23.360;2022-08-20T13:37:37;22.65;;;14.18;;
6388;SDS011;3227;42.654;23.360;2022-08-20T13:40:06;21.90;;;14.52;;
6388;SDS011;3227;42.654;23.360;2022-08-20T13:42:34;22.15;;;14.27;;
6388;SDS011;3227;42.654;23.360;2022-08-20T13:45:01;21.05;;;14.88;;
6388;SDS011;3227;42.654;23.360;2022-08-20T13:47:29;23.60;;;14.85;;
6388;SDS011;3227;42.654;23.360;2022-08-20T13:50:01;22.58;;;15.05;;
6388;SDS011;3227;42.654;23.360;2022-08-20T13:52:32;19.65;;;14.23;;
6388;SDS011;3227;42.654;23.360;2022-08-20T13:54:59;17.45;;;13.32;;
6388;SDS011;3227;42.654;23.360;2022-08-20T13:57:26;20.65;;;13.70;;
6388;SDS011;3227;42.654;23.360;2022-08-20T13:59:55;21.48;;;13.85;;
6388;SDS011;3227;42.654;23.360;2022-08-20T14:02:23;18.08;;;13.77;;
6388;SDS011;3227;42.654;23.360;2022-08-20T14:04:51;18.33;;;13.00;;
6388;SDS011;3227;42.654;23.360;2022-08-20T14:07:22;15.85;;;11.68;;
6388;SDS011;3227;42.654;23.360;2022-08-20T14:09:52;16.17;;;11.10;;
6388;SDS011;3227;42.654;23.360;2022-08-20T14:12:21;21.17;;;11.73;;
6388;SDS011;3227;42.654;23.360;2022-08-20T14:14:49;15.60;;;12.13;;
6388;SDS011;3227;42.654;23.360;2022-08-20T14:17:18;19.85;;;12.68;;
6388;SDS011;3227;42.654;23.360;2022-08-20T14:19:48;16.65;;;11.02;;
6388;SDS011;3227;42.654;23.360;2022-08-20T14:22:16;16.55;;;12.45;;
6388;SDS011;3227;42.654;23.360;2022-08-20T14:24:44;19.55;;;13.30;;
6388;SDS011;3227;42.654;23.360;2022-08-20T14:27:12;18.17;;;12.82;;
6388;SDS011;3227;42.654;23.360;2022-08-20T14:29:42;16.08;;;11.77;;
6388;SDS011;3227;42.654;23.360;2022-08-20T14:32:10;17.63;;;11.85;;
6388;SDS011;3227;42.654;23.360;2022-08-20T14:34:39;17.75;;;12.50;;
6388;SDS011;3227;42.654;23.360;2022-08-20T14:37:10;16.77;;;12.13;;
6388;SDS011;3227;42.654;23.360;2022-08-20T14:39:38;16.00;;;11.52;;
6388;SDS011;3227;42.654;23.360;2022-08-20T14:42:10;19.60;;;12.18;;
6388;SDS011;3227;42.654;23.360;2022-08-20T14:44:43;17.90;;;10.88;;
6388;SDS011;3227;42.654;23.360;2022-08-20T14:47:15;16.65;;;11.18;;
6388;SDS011;3227;42.654;23.360;2022-08-20T14:49:44;16.85;;;11.02;;
6388;SDS011;3227;42.654;23.360;2022-08-20T14:52:11;19.13;;;11.63;;